Terminal Aerodrome Forecast
Issued by NWS Cleveland, OH

Home | Current Version | Previous Version | Graphics & Text | Print | Product List | Glossary On
Versions: 1 2 3 4 5 6 7 8 9 10 11 12 13 14 15 16
000
FTUS41 KCLE 302300
TAFCAK
TAF
KCAK 302338Z 0100/0124 36010KT P6SM VCSH BKN025 OVC090
      TEMPO 0100/0104 6SM -SHRA SCT025 OVC090
     FM010500 36006KT P6SM SCT025 OVC090
     FM011600 36010G18KT P6SM SCT060=

USA.gov is the U.S. government's official web portal to all federal, state and local government web resources and services.